Time;durP1;ratioP1;P1;durP2;ratioP2;P2;SDS_P1;SDS_P2;PMS_P1;PMS_P2;Temp;Humidity;BMP_temperature;BMP_pressure;BME280_temperature;BME280_humidity;BME280_pressure;Samples;Min_cycle;Max_cycle;Signal;HPM_P1;HPM_P2
2024/04/20 00:02:17;;;;;;;10.43;2.50;;;6.00;99.90;;;;;;5457834;25;20712;-68
2024/04/20 00:04:50;;;;;;;4.43;2.23;;;6.10;99.90;;;;;;5448531;26;20268;-67
2024/04/20 00:07:20;;;;;;;10.33;2.73;;;6.10;99.90;;;;;;5461680;26;20248;-68
2024/04/20 00:09:51;;;;;;;5.60;2.10;;;6.10;99.90;;;;;;5454859;26;20252;-68
2024/04/20 00:12:21;;;;;;;9.47;2.40;;;6.10;99.90;;;;;;5443912;26;20261;-68
2024/04/20 00:14:52;;;;;;;7.57;2.40;;;6.10;99.90;;;;;;5460860;25;20261;-68
2024/04/20 00:17:25;;;;;;;9.50;2.23;;;6.10;99.90;;;;;;5461057;26;20317;-68
2024/04/20 00:19:55;;;;;;;7.73;2.50;;;6.10;99.90;;;;;;5454991;26;20425;-68
2024/04/20 00:22:26;;;;;;;11.03;2.80;;;6.10;99.90;;;;;;5451761;26;20278;-69
2024/04/20 00:24:56;;;;;;;12.03;2.93;;;6.10;99.90;;;;;;5453638;26;20249;-68
2024/04/20 00:27:26;;;;;;;11.57;2.90;;;6.10;99.90;;;;;;5451613;26;20260;-68
2024/04/20 00:29:56;;;;;;;14.17;3.43;;;6.10;99.90;;;;;;5450317;25;20287;-68
2024/04/20 00:32:29;;;;;;;13.37;3.13;;;6.20;99.90;;;;;;5448659;26;20291;-68
2024/04/20 00:35:00;;;;;;;12.83;3.77;;;6.20;99.90;;;;;;5456856;26;20266;-68
2024/04/20 00:37:30;;;;;;;18.27;4.43;;;6.30;99.90;;;;;;5453965;26;20268;-68
2024/04/20 00:40:00;;;;;;;12.17;3.07;;;6.30;99.90;;;;;;5441545;26;20264;-67
2024/04/20 00:42:30;;;;;;;10.23;2.40;;;6.40;99.90;;;;;;5452879;26;20268;-67
2024/04/20 00:45:00;;;;;;;11.50;2.63;;;6.40;99.90;;;;;;5451976;26;20256;-67
2024/04/20 00:47:34;;;;;;;13.07;2.50;;;6.40;93.70;;;;;;5452803;25;20296;-67
2024/04/20 00:50:05;;;;;;;12.13;2.80;;;6.40;90.10;;;;;;5454543;26;20672;-67
2024/04/20 00:52:36;;;;;;;11.60;2.50;;;6.40;92.50;;;;;;5454978;26;20236;-68
2024/04/20 00:55:07;;;;;;;12.87;3.03;;;6.40;97.70;;;;;;5457912;26;20282;-68
2024/04/20 00:57:37;;;;;;;19.30;3.00;;;6.30;99.30;;;;;;5448642;26;20257;-68
2024/04/20 01:00:09;;;;;;;18.73;3.20;;;6.30;99.90;;;;;;5449157;26;20264;-68
2024/04/20 01:02:42;;;;;;;14.67;3.07;;;6.30;99.90;;;;;;5446490;26;20291;-68
2024/04/20 01:05:17;;;;;;;9.53;2.67;;;6.30;99.90;;;;;;5448193;26;20322;-67
2024/04/20 01:07:47;;;;;;;18.17;2.67;;;6.30;99.90;;;;;;5445603;26;20221;-67
2024/04/20 01:10:17;;;;;;;11.47;2.67;;;6.20;99.90;;;;;;5449367;26;20297;-68
2024/04/20 01:12:47;;;;;;;14.50;2.90;;;6.20;99.90;;;;;;5450295;25;20266;-68
2024/04/20 01:15:17;;;;;;;12.13;2.70;;;6.20;99.90;;;;;;5452520;26;20264;-68
2024/04/20 01:17:50;;;;;;;15.07;2.53;;;6.10;99.20;;;;;;5453333;25;20326;-68
2024/04/20 01:20:20;;;;;;;12.70;2.80;;;6.10;96.80;;;;;;5442808;26;20294;-68
2024/04/20 01:22:51;;;;;;;7.30;2.27;;;6.10;88.40;;;;;;5458791;26;20237;-68
2024/04/20 01:25:21;;;;;;;9.30;2.07;;;6.00;52.80;;;;;;5446146;26;20660;-68
2024/04/20 01:27:54;;;;;;;4.73;1.93;;;6.00;16.90;;;;;;5454531;26;20268;-68
2024/04/20 01:30:25;;;;;;;6.33;1.87;;;6.00;1.90;;;;;;5448130;26;20260;-68
2024/04/20 01:32:55;;;;;;;9.23;2.23;;;6.10;1.00;;;;;;5457913;26;20260;-68
2024/04/20 01:35:27;;;;;;;7.73;2.57;;;6.10;1.00;;;;;;5448871;26;20313;-68
2024/04/20 01:37:58;;;;;;;12.73;2.47;;;6.20;7.40;;;;;;5454945;26;20325;-68
2024/04/20 01:40:29;;;;;;;8.47;2.33;;;6.20;23.50;;;;;;5447670;26;20726;-68
2024/04/20 01:43:02;;;;;;;8.40;2.30;;;6.30;26.90;;;;;;5451867;26;20260;-68
2024/04/20 01:45:32;;;;;;;9.63;2.43;;;6.30;34.80;;;;;;5444432;26;20297;-68
2024/04/20 01:48:02;;;;;;;13.40;2.77;;;6.30;50.00;;;;;;5446351;26;20671;-68
2024/04/20 01:50:33;;;;;;;13.10;2.60;;;6.30;61.80;;;;;;5454385;25;20301;-68
2024/04/20 01:53:03;;;;;;;9.43;2.73;;;6.30;68.50;;;;;;5456466;26;20270;-68
2024/04/20 01:55:33;;;;;;;13.27;2.63;;;6.30;73.60;;;;;;5449920;26;20270;-68
2024/04/20 01:58:06;;;;;;;6.23;2.77;;;6.30;81.90;;;;;;5456231;25;20260;-68
2024/04/20 02:00:36;;;;;;;11.57;2.67;;;6.30;83.60;;;;;;5461839;26;20248;-68
2024/04/20 02:03:11;;;;;;;11.60;2.40;;;6.20;90.70;;;;;;5450331;26;20299;-68
2024/04/20 02:05:42;;;;;;;11.40;2.70;;;6.10;95.60;;;;;;5450040;26;20267;-68
2024/04/20 02:08:12;;;;;;;10.30;2.73;;;6.10;96.70;;;;;;5441568;26;20249;-68
2024/04/20 02:10:42;;;;;;;13.67;3.30;;;6.10;99.10;;;;;;5452409;26;20277;-68
2024/04/20 02:13:15;;;;;;;17.00;3.37;;;6.00;99.90;;;;;;5408290;26;20246;-68
2024/04/20 02:15:45;;;;;;;14.00;3.00;;;6.00;99.90;;;;;;5425569;26;20252;-68
2024/04/20 02:18:15;;;;;;;14.00;3.47;;;6.00;99.90;;;;;;5443798;26;20287;-68
2024/04/20 02:20:46;;;;;;;16.20;4.33;;;6.00;99.90;;;;;;5450290;26;20248;-68
2024/04/20 02:23:16;;;;;;;11.20;2.93;;;6.10;99.90;;;;;;5445084;26;20292;-68
2024/04/20 02:25:46;;;;;;;17.47;3.57;;;6.10;99.90;;;;;;5439744;26;20245;-67
2024/04/20 02:28:19;;;;;;;15.60;3.30;;;6.20;99.90;;;;;;5442662;26;20271;-67
2024/04/20 02:30:49;;;;;;;13.67;3.10;;;6.20;99.90;;;;;;5443402;26;20253;-68
2024/04/20 02:33:20;;;;;;;11.67;3.10;;;6.10;99.90;;;;;;5452157;26;20293;-68
2024/04/20 02:35:50;;;;;;;15.47;3.33;;;6.10;99.90;;;;;;5447317;26;20253;-68
2024/04/20 02:38:20;;;;;;;14.40;3.27;;;6.00;99.90;;;;;;5454775;26;20257;-68
2024/04/20 02:40:50;;;;;;;17.27;3.97;;;5.90;99.90;;;;;;5447722;26;20261;-68
2024/04/20 02:43:23;;;;;;;17.47;4.27;;;5.80;99.90;;;;;;5449205;26;20237;-69
2024/04/20 02:45:53;;;;;;;14.23;3.47;;;5.80;99.90;;;;;;5454146;25;20285;-69
2024/04/20 02:48:24;;;;;;;16.93;4.07;;;5.70;99.90;;;;;;5450028;25;20255;-69
2024/04/20 02:50:54;;;;;;;15.83;3.83;;;5.70;99.90;;;;;;5451397;25;20637;-69
2024/04/20 02:53:24;;;;;;;12.93;3.30;;;5.70;99.90;;;;;;5449236;26;20256;-68
2024/04/20 02:55:54;;;;;;;18.33;3.37;;;5.70;99.90;;;;;;5446032;25;20322;-68
2024/04/20 02:58:28;;;;;;;19.47;3.60;;;5.60;99.90;;;;;;5452176;26;20559;-69
2024/04/20 03:01:00;;;;;;;14.43;3.47;;;5.60;99.90;;;;;;5452973;26;20880;-68
2024/04/20 03:03:32;;;;;;;18.37;4.07;;;5.60;99.90;;;;;;5452401;26;20257;-68
2024/04/20 03:06:02;;;;;;;18.73;3.50;;;5.60;99.90;;;;;;5457639;26;20287;-69
2024/04/20 03:08:34;;;;;;;9.00;2.97;;;5.60;99.90;;;;;;5457614;26;20249;-68
2024/04/20 03:11:04;;;;;;;11.77;3.00;;;5.60;99.90;;;;;;5446337;26;20291;-68
2024/04/20 03:13:37;;;;;;;14.17;3.40;;;5.60;99.90;;;;;;5441123;26;20260;-68
2024/04/20 03:16:07;;;;;;;16.73;3.30;;;5.60;99.90;;;;;;5449173;26;20252;-68
2024/04/20 03:18:38;;;;;;;14.60;3.50;;;5.50;99.90;;;;;;5458301;26;20280;-68
2024/04/20 03:21:08;;;;;;;15.70;3.47;;;5.50;99.90;;;;;;5451737;26;20771;-68
2024/04/20 03:23:38;;;;;;;10.03;3.10;;;5.50;99.90;;;;;;5449551;26;21210;-68
2024/04/20 03:26:08;;;;;;;10.50;3.00;;;5.60;99.90;;;;;;5450259;26;20263;-68
2024/04/20 03:28:41;;;;;;;12.03;2.90;;;5.60;99.90;;;;;;5450725;26;20283;-68
2024/04/20 03:31:11;;;;;;;12.07;2.97;;;5.50;99.90;;;;;;5457633;26;20237;-68
2024/04/20 03:33:44;;;;;;;6.90;2.63;;;5.60;99.90;;;;;;5450607;26;20366;-68
2024/04/20 03:36:14;;;;;;;12.37;3.03;;;5.60;99.90;;;;;;5445815;26;20257;-68
2024/04/20 03:38:48;;;;;;;11.23;3.07;;;5.60;99.90;;;;;;5458055;25;20283;-68
2024/04/20 03:41:19;;;;;;;16.97;3.47;;;5.60;99.90;;;;;;5450543;26;20655;-68
2024/04/20 03:43:51;;;;;;;14.13;3.40;;;5.60;99.90;;;;;;5462056;26;20237;-68
2024/04/20 03:46:21;;;;;;;12.40;2.93;;;5.60;99.90;;;;;;5452189;26;20252;-68
2024/04/20 03:48:51;;;;;;;14.67;3.40;;;5.60;99.90;;;;;;5452645;25;20306;-68
2024/04/20 03:51:21;;;;;;;7.50;3.00;;;5.60;99.90;;;;;;5451070;26;20248;-68
2024/04/20 03:53:52;;;;;;;12.13;3.27;;;5.70;99.90;;;;;;5455267;26;20257;-67
2024/04/20 03:56:22;;;;;;;11.07;3.07;;;5.70;99.90;;;;;;5452095;26;20296;-68
2024/04/20 03:58:54;;;;;;;13.13;3.30;;;5.70;99.90;;;;;;5451112;25;20244;-67
2024/04/20 04:01:24;;;;;;;9.90;2.93;;;5.70;99.90;;;;;;5452639;26;20292;-68
2024/04/20 04:03:55;;;;;;;15.13;3.13;;;5.70;99.90;;;;;;5452491;26;20257;-68
2024/04/20 04:06:25;;;;;;;8.07;3.00;;;5.70;99.90;;;;;;5453327;26;20257;-68
2024/04/20 04:08:55;;;;;;;11.30;3.10;;;5.70;99.90;;;;;;5460517;26;20312;-69
2024/04/20 04:11:25;;;;;;;11.40;3.10;;;5.70;99.90;;;;;;5454863;26;20311;-68
2024/04/20 04:13:58;;;;;;;8.60;2.57;;;5.70;99.90;;;;;;5454492;25;20283;-68
2024/04/20 04:16:29;;;;;;;9.90;2.53;;;5.70;99.90;;;;;;5457708;26;20234;-69
2024/04/20 04:18:59;;;;;;;10.17;2.57;;;5.70;99.90;;;;;;5439680;26;20273;-69
2024/04/20 04:21:30;;;;;;;9.00;2.30;;;5.70;99.90;;;;;;5437701;26;20776;-69
2024/04/20 04:24:00;;;;;;;10.20;2.57;;;5.70;99.90;;;;;;5454500;26;20300;-69
2024/04/20 04:26:30;;;;;;;5.20;2.07;;;5.70;99.90;;;;;;5457590;25;20261;-69
2024/04/20 04:29:03;;;;;;;9.43;2.33;;;5.70;99.90;;;;;;5451222;25;20234;-68
2024/04/20 04:31:33;;;;;;;11.23;2.37;;;5.70;99.90;;;;;;5452902;26;20232;-68
2024/04/20 04:34:03;;;;;;;9.00;2.00;;;5.70;99.90;;;;;;5445136;26;20283;-69
2024/04/20 04:36:35;;;;;;;5.03;2.10;;;5.70;99.90;;;;;;5438745;26;20295;-69
2024/04/20 04:39:08;;;;;;;14.17;2.50;;;5.80;99.90;;;;;;5448745;25;21013;-69
2024/04/20 04:41:38;;;;;;;8.93;3.20;;;5.80;99.90;;;;;;5449403;26;20361;-69
2024/04/20 04:44:11;;;;;;;10.87;2.90;;;5.80;99.90;;;;;;5459862;25;20267;-69
2024/04/20 04:46:41;;;;;;;7.30;2.20;;;5.80;99.90;;;;;;5451683;26;20246;-69
2024/04/20 04:49:12;;;;;;;12.17;2.67;;;5.70;99.90;;;;;;5453700;26;20312;-69
2024/04/20 04:51:42;;;;;;;7.83;2.60;;;5.80;99.90;;;;;;5454591;26;20273;-68
2024/04/20 04:54:12;;;;;;;6.77;2.40;;;5.80;99.90;;;;;;5452185;26;20305;-69
2024/04/20 04:56:42;;;;;;;11.40;2.27;;;5.80;99.90;;;;;;5450157;26;20311;-69
2024/04/20 04:59:17;;;;;;;11.77;3.03;;;5.80;99.90;;;;;;5453193;26;20308;-68
2024/04/20 05:01:47;;;;;;;10.60;2.90;;;5.90;99.90;;;;;;5451091;25;20603;-68
2024/04/20 05:04:20;;;;;;;9.83;2.77;;;5.90;99.90;;;;;;5455755;26;20276;-68
2024/04/20 05:06:51;;;;;;;11.40;2.23;;;5.90;99.90;;;;;;5449169;26;20248;-69
2024/04/20 05:09:21;;;;;;;6.40;2.33;;;5.90;99.90;;;;;;5451577;26;20260;-68
2024/04/20 05:11:51;;;;;;;8.40;2.40;;;5.90;99.90;;;;;;5447523;26;20762;-68
2024/04/20 05:14:24;;;;;;;13.50;2.97;;;5.90;99.90;;;;;;5444078;25;20262;-68
2024/04/20 05:16:54;;;;;;;7.07;2.67;;;5.80;99.90;;;;;;5447612;26;20244;-68
2024/04/20 05:19:24;;;;;;;6.57;2.03;;;5.90;99.90;;;;;;5447866;26;20260;-69
2024/04/20 05:21:54;;;;;;;3.93;2.10;;;5.80;99.90;;;;;;5438874;26;20303;-69
2024/04/20 05:24:26;;;;;;;8.13;2.60;;;5.90;99.90;;;;;;5440133;26;20262;-68
2024/04/20 05:26:56;;;;;;;8.73;2.40;;;5.90;99.90;;;;;;5441325;26;20269;-68
2024/04/20 05:29:29;;;;;;;9.03;2.50;;;5.90;99.90;;;;;;5454390;25;20252;-68
2024/04/20 05:31:59;;;;;;;11.43;2.30;;;5.90;99.90;;;;;;5451952;26;20240;-68
2024/04/20 05:34:30;;;;;;;14.77;2.60;;;6.00;99.90;;;;;;5452742;26;20274;-69
2024/04/20 05:37:00;;;;;;;11.60;2.60;;;6.00;99.90;;;;;;5455139;25;20261;-68
2024/04/20 05:39:32;;;;;;;7.83;2.40;;;6.10;99.90;;;;;;5447516;26;20256;-69
2024/04/20 05:42:03;;;;;;;10.30;2.30;;;6.20;99.90;;;;;;5461484;26;21161;-69
2024/04/20 05:44:36;;;;;;;9.27;2.77;;;6.20;99.90;;;;;;5449507;26;20297;-69
2024/04/20 05:47:07;;;;;;;12.50;2.87;;;6.20;99.90;;;;;;5455476;26;20277;-68
2024/04/20 05:49:39;;;;;;;11.33;3.07;;;6.20;99.90;;;;;;5455865;26;20287;-67
2024/04/20 05:52:09;;;;;;;10.63;2.57;;;6.20;99.90;;;;;;5452329;26;20717;-68
2024/04/20 05:54:39;;;;;;;7.93;2.00;;;6.20;99.90;;;;;;5459182;26;20252;-68
2024/04/20 05:57:09;;;;;;;7.33;2.10;;;6.10;99.90;;;;;;5451030;26;20253;-68
2024/04/20 05:59:42;;;;;;;7.43;2.17;;;6.00;99.90;;;;;;5453402;26;20325;-68
2024/04/20 06:02:12;;;;;;;3.60;1.93;;;6.00;99.90;;;;;;5450823;26;20257;-68
2024/04/20 06:04:43;;;;;;;7.57;1.90;;;6.10;99.90;;;;;;5444543;26;20272;-68
2024/04/20 06:07:15;;;;;;;5.07;2.27;;;6.20;99.90;;;;;;5443706;26;20256;-68
2024/04/20 06:09:45;;;;;;;5.93;1.83;;;6.30;99.90;;;;;;5459596;26;20324;-68
2024/04/20 06:12:15;;;;;;;6.30;2.00;;;6.40;99.90;;;;;;5444444;26;20252;-68
2024/04/20 06:14:49;;;;;;;4.87;2.00;;;6.50;99.90;;;;;;5448722;26;20257;-68
2024/04/20 06:17:19;;;;;;;5.47;2.10;;;6.50;99.90;;;;;;5443634;26;20649;-68
2024/04/20 06:19:50;;;;;;;6.70;2.50;;;6.70;99.90;;;;;;5446603;26;20743;-67
2024/04/20 06:22:20;;;;;;;10.93;2.30;;;6.80;99.90;;;;;;5453677;26;20254;-68
2024/04/20 06:24:53;;;;;;;5.80;2.20;;;6.90;99.90;;;;;;5448064;26;20727;-68
2024/04/20 06:27:23;;;;;;;8.20;2.13;;;7.00;99.90;;;;;;5453397;26;20255;-68
2024/04/20 06:29:56;;;;;;;7.37;2.23;;;7.00;99.90;;;;;;5461778;26;20279;-68
2024/04/20 06:32:26;;;;;;;4.23;2.10;;;6.90;99.90;;;;;;5452596;26;20268;-68
2024/04/20 06:34:57;;;;;;;6.53;2.30;;;6.90;99.90;;;;;;5453726;26;20248;-68
2024/04/20 06:37:28;;;;;;;8.30;2.40;;;6.80;99.90;;;;;;5454478;26;20232;-68
2024/04/20 06:39:58;;;;;;;9.47;2.33;;;6.80;99.90;;;;;;5449341;26;21205;-68
2024/04/20 06:42:28;;;;;;;5.60;2.13;;;6.80;99.90;;;;;;5453993;25;20252;-68
2024/04/20 06:45:02;;;;;;;6.73;2.10;;;6.90;99.90;;;;;;5448426;26;20343;-68
2024/04/20 06:47:33;;;;;;;7.70;2.70;;;7.00;99.90;;;;;;5460606;25;20625;-68
2024/04/20 06:50:04;;;;;;;9.03;2.63;;;7.40;99.90;;;;;;5450143;26;20284;-68
2024/04/20 06:52:34;;;;;;;8.67;2.20;;;7.80;99.90;;;;;;5445495;26;20242;-68
2024/04/20 06:55:04;;;;;;;8.53;2.47;;;8.10;99.90;;;;;;5451349;26;20343;-68
2024/04/20 06:57:36;;;;;;;4.77;2.40;;;8.40;99.90;;;;;;5470479;26;20261;-68
2024/04/20 07:00:10;;;;;;;10.57;2.63;;;8.50;72.40;;;;;;5452262;26;20751;-68
2024/04/20 07:02:40;;;;;;;11.17;2.87;;;8.60;74.80;;;;;;5451763;26;20780;-68
2024/04/20 07:05:11;;;;;;;9.17;2.40;;;8.70;40.30;;;;;;5459680;26;20759;-68
2024/04/20 07:07:41;;;;;;;7.07;2.63;;;8.70;23.60;;;;;;5457217;26;20233;-68
2024/04/20 07:10:11;;;;;;;5.57;2.77;;;8.60;1.00;;;;;;5455011;26;20295;-70
2024/04/20 07:12:41;;;;;;;13.40;3.00;;;8.60;3.50;;;;;;5449394;26;20331;-69
2024/04/20 07:15:15;;;;;;;11.27;2.27;;;8.70;1.00;;;;;;5449367;26;20261;-70
2024/04/20 07:17:48;;;;;;;7.57;2.57;;;8.90;1.00;;;;;;5447560;26;20308;-69
2024/04/20 07:20:21;;;;;;;5.93;2.43;;;8.90;1.00;;;;;;5445924;26;20391;-69
2024/04/20 07:22:51;;;;;;;8.73;2.77;;;9.00;1.00;;;;;;5455538;25;20636;-69
2024/04/20 07:25:21;;;;;;;11.63;3.07;;;9.00;1.00;;;;;;5461801;26;20557;-70
2024/04/20 07:27:51;;;;;;;7.80;2.97;;;8.90;1.00;;;;;;5459838;25;20276;-69
2024/04/20 07:30:24;;;;;;;10.17;2.70;;;8.90;1.00;;;;;;5463412;26;20322;-70
2024/04/20 07:32:54;;;;;;;8.93;3.20;;;8.90;1.00;;;;;;5458469;26;20320;-70
2024/04/20 07:35:24;;;;;;;6.23;2.60;;;8.90;1.00;;;;;;5460551;26;20359;-70
2024/04/20 07:37:54;;;;;;;8.53;2.57;;;8.90;1.00;;;;;;5450766;26;20233;-69
2024/04/20 07:40:25;;;;;;;8.00;2.60;;;8.90;1.00;;;;;;5462252;26;20237;-70
2024/04/20 07:42:55;;;;;;;8.07;2.60;;;8.80;1.00;;;;;;5457976;26;20248;-70
2024/04/20 07:45:28;;;;;;;7.57;2.30;;;8.80;99.90;;;;;;5460574;26;20308;-69
2024/04/20 07:48:00;;;;;;;5.40;2.30;;;8.80;6.30;;;;;;5452174;26;20269;-69
2024/04/20 07:50:30;;;;;;;6.53;2.50;;;8.70;99.90;;;;;;5461930;25;20317;-69
2024/04/20 07:53:00;;;;;;;9.37;2.47;;;8.40;99.90;;;;;;5460596;26;20274;-68
2024/04/20 07:55:31;;;;;;;14.33;2.67;;;8.10;1.00;;;;;;5459578;26;20294;-68
2024/04/20 07:58:01;;;;;;;7.73;2.23;;;7.90;1.00;;;;;;5450174;26;20858;-69
2024/04/20 08:00:34;;;;;;;7.57;2.60;;;7.90;31.50;;;;;;5459990;25;20360;-69
2024/04/20 08:03:05;;;;;;;12.37;2.70;;;8.00;60.50;;;;;;5456589;26;20311;-69
2024/04/20 08:05:35;;;;;;;6.27;2.30;;;8.10;49.20;;;;;;5465505;25;20248;-69
2024/04/20 08:08:05;;;;;;;13.73;2.83;;;8.30;68.90;;;;;;5459784;26;20244;-69
2024/04/20 08:10:36;;;;;;;8.70;2.77;;;8.30;1.00;;;;;;5460196;26;20844;-69
2024/04/20 08:13:06;;;;;;;5.70;2.80;;;8.40;1.00;;;;;;5457502;26;20706;-69
2024/04/20 08:15:39;;;;;;;12.30;2.90;;;8.70;1.00;;;;;;5457714;26;20253;-69
2024/04/20 08:18:09;;;;;;;9.83;3.00;;;8.60;1.00;;;;;;5457986;26;20293;-69
2024/04/20 08:20:41;;;;;;;13.17;2.83;;;8.60;1.00;;;;;;5452269;26;20265;-69
2024/04/20 08:23:12;;;;;;;12.37;2.97;;;8.50;1.00;;;;;;5447866;26;20287;-69
2024/04/20 08:25:42;;;;;;;9.30;2.50;;;8.40;1.00;;;;;;5465816;26;20296;-69
2024/04/20 08:28:12;;;;;;;9.17;3.00;;;8.50;1.00;;;;;;5454125;26;20280;-70
2024/04/20 08:30:46;;;;;;;7.53;2.43;;;8.50;99.90;;;;;;5455037;26;20252;-69
2024/04/20 08:33:16;;;;;;;9.83;2.60;;;8.60;1.00;;;;;;5452678;25;20248;-69
2024/04/20 08:35:46;;;;;;;6.67;2.37;;;8.80;99.90;;;;;;5458342;26;20312;-69
2024/04/20 08:38:17;;;;;;;7.67;2.77;;;9.10;1.00;;;;;;5454371;26;20300;-69
2024/04/20 08:40:50;;;;;;;8.00;2.50;;;9.40;1.00;;;;;;5452803;26;20254;-69
2024/04/20 08:43:22;;;;;;;12.33;2.90;;;9.60;1.00;;;;;;5461293;26;20245;-69
2024/04/20 08:45:58;;;;;;;5.33;2.10;;;9.60;1.00;;;;;;5462502;25;20256;-70
2024/04/20 08:48:30;;;;;;;8.77;2.60;;;9.70;1.00;;;;;;5454782;26;20286;-69
2024/04/20 08:51:03;;;;;;;10.00;2.30;;;10.00;99.90;;;;;;5459026;25;20257;-69
2024/04/20 08:53:34;;;;;;;8.00;2.30;;;10.30;17.50;;;;;;5461358;25;20275;-69
2024/04/20 08:56:05;;;;;;;6.23;2.40;;;10.40;1.00;;;;;;5451596;25;20727;-70
2024/04/20 08:58:36;;;;;;;8.23;2.30;;;10.50;1.00;;;;;;5453038;26;20271;-70
2024/04/20 09:01:14;;;;;;;11.60;3.20;;;10.60;53.60;;;;;;5458784;25;20256;-70
2024/04/20 09:03:45;;;;;;;11.70;2.80;;;10.70;1.00;;;;;;5443783;26;20249;-70
2024/04/20 09:06:16;;;;;;;10.23;3.23;;;10.90;1.00;;;;;;5448337;26;20269;-70
2024/04/20 09:08:46;;;;;;;20.03;5.57;;;11.00;1.00;;;;;;5475489;26;20807;-70
2024/04/20 09:11:17;;;;;;;14.20;4.63;;;11.10;1.00;;;;;;5444212;26;20643;-70
2024/04/20 09:13:47;;;;;;;14.57;2.87;;;11.20;1.00;;;;;;5455957;26;20233;-70
2024/04/20 09:16:20;;;;;;;16.87;3.30;;;11.20;32.20;;;;;;5448244;26;20290;-70
2024/04/20 09:18:50;;;;;;;16.10;3.23;;;11.20;22.20;;;;;;5454508;26;20260;-70
2024/04/20 09:21:20;;;;;;;13.10;3.00;;;11.30;99.90;;;;;;5446763;25;20334;-70
2024/04/20 09:23:50;;;;;;;10.83;3.00;;;11.40;99.90;;;;;;5446847;26;20304;-69
2024/04/20 09:26:22;;;;;;;16.20;3.30;;;11.60;1.00;;;;;;5434654;26;20342;-69
2024/04/20 09:29:02;;;;;;;11.90;2.87;;;12.00;99.90;;;;;;5450901;25;20233;-69
2024/04/20 09:31:35;;;;;;;16.17;2.90;;;12.20;3.10;;;;;;5442221;26;20237;-69
2024/04/20 09:34:06;;;;;;;12.87;3.10;;;12.30;99.90;;;;;;5443785;26;20249;-69
2024/04/20 09:36:36;;;;;;;12.33;2.80;;;12.50;1.00;;;;;;5446556;26;20313;-69
2024/04/20 09:39:07;;;;;;;8.80;2.53;;;12.50;99.90;;;;;;5455923;25;20265;-69
2024/04/20 09:41:37;;;;;;;12.00;2.50;;;12.90;1.00;;;;;;5449466;26;20256;-69
2024/04/20 09:44:09;;;;;;;10.33;2.50;;;13.20;1.00;;;;;;5450153;26;21549;-69
2024/04/20 09:46:46;;;;;;;13.03;2.80;;;13.20;1.00;;;;;;5450818;26;20609;-69
2024/04/20 09:49:17;;;;;;;10.37;2.70;;;13.90;99.90;;;;;;5454498;26;20712;-69
2024/04/20 09:51:56;;;;;;;11.67;3.07;;;14.00;1.00;;;;;;5459482;26;20309;-69
2024/04/20 09:54:29;;;;;;;7.93;2.23;;;13.90;99.90;;;;;;5445013;26;20250;-69
2024/04/20 09:57:00;;;;;;;10.47;2.60;;;14.30;99.90;;;;;;5448373;26;20309;-69
2024/04/20 09:59:31;;;;;;;11.00;2.80;;;15.10;1.00;;;;;;5455732;26;20265;-69
2024/04/20 10:02:05;;;;;;;6.57;2.57;;;16.20;1.00;;;;;;5444988;25;20326;-69
2024/04/20 10:04:37;;;;;;;6.30;2.60;;;16.80;1.00;;;;;;5449102;26;20231;-69
2024/04/20 10:07:08;;;;;;;4.77;2.27;;;15.80;99.90;;;;;;5454096;26;20800;-69
2024/04/20 10:09:41;;;;;;;6.67;2.37;;;14.70;99.90;;;;;;5451169;26;20343;-69
2024/04/20 10:12:12;;;;;;;10.70;2.67;;;13.90;99.90;;;;;;5463145;25;20794;-69
2024/04/20 10:14:45;;;;;;;5.97;2.30;;;13.40;99.90;;;;;;5454236;26;20259;-69
2024/04/20 10:17:18;;;;;;;10.60;2.70;;;13.60;1.00;;;;;;5452741;25;20313;-69
2024/04/20 10:19:50;;;;;;;7.87;2.57;;;14.20;1.00;;;;;;5443742;26;20581;-68
2024/04/20 10:22:22;;;;;;;8.43;2.20;;;14.70;1.00;;;;;;5461976;26;20237;-69
2024/04/20 10:24:55;;;;;;;8.27;2.30;;;15.20;99.90;;;;;;5453193;26;20754;-69
2024/04/20 10:27:27;;;;;;;6.77;2.63;;;14.90;99.90;;;;;;5459140;26;20358;-69
2024/04/20 10:30:09;;;;;;;7.87;2.83;;;14.40;1.00;;;;;;5460443;26;20257;-69
2024/04/20 10:32:43;;;;;;;13.20;3.37;;;13.70;1.00;;;;;;5448710;26;20257;-69
2024/04/20 10:35:19;;;;;;;10.00;3.20;;;13.20;1.00;;;;;;5452987;26;20893;-69
2024/04/20 10:38:00;;;;;;;12.87;2.33;;;13.00;1.00;;;;;;5454637;26;20271;-69
2024/04/20 10:40:31;;;;;;;9.37;2.10;;;13.00;1.00;;;;;;5455354;26;20236;-69
2024/04/20 10:43:11;;;;;;;9.87;2.77;;;12.70;1.00;;;;;;5444768;26;20268;-69
2024/04/20 10:45:42;;;;;;;9.93;2.87;;;12.50;1.00;;;;;;5453949;26;20253;-69
2024/04/20 10:48:16;;;;;;;9.00;2.53;;;12.20;1.00;;;;;;5454826;26;20349;-69
2024/04/20 10:50:46;;;;;;;10.73;2.60;;;11.90;1.00;;;;;;5459880;26;20303;-69
2024/04/20 10:53:22;;;;;;;9.23;2.73;;;11.90;99.90;;;;;;5448971;25;20261;-69
2024/04/20 10:55:58;;;;;;;13.47;2.90;;;11.80;1.00;;;;;;5445260;26;20293;-68
2024/04/20 10:58:29;;;;;;;11.73;3.00;;;11.80;99.90;;;;;;5454764;26;20268;-69
2024/04/20 11:01:00;;;;;;;8.03;2.57;;;11.70;1.00;;;;;;5456418;26;20299;-69
2024/04/20 11:03:34;;;;;;;15.70;3.30;;;11.70;1.00;;;;;;5462719;26;20257;-69
2024/04/20 11:06:05;;;;;;;13.20;3.07;;;11.90;99.90;;;;;;5458501;26;20256;-68
2024/04/20 11:08:35;;;;;;;13.50;4.27;;;12.20;99.90;;;;;;5460648;25;20252;-68
2024/04/20 11:11:05;;;;;;;10.77;3.27;;;12.60;99.90;;;;;;5444561;26;20342;-68
2024/04/20 11:13:37;;;;;;;14.07;3.13;;;13.00;99.90;;;;;;5457831;26;20251;-68
2024/04/20 11:16:10;;;;;;;9.70;2.77;;;13.10;7.40;;;;;;5445072;26;20572;-68
2024/04/20 11:18:44;;;;;;;8.07;2.87;;;12.90;99.90;;;;;;5455381;26;20253;-68
2024/04/20 11:21:19;;;;;;;9.73;3.10;;;12.80;99.90;;;;;;5455802;26;20267;-69
2024/04/20 11:23:49;;;;;;;10.00;2.70;;;12.40;99.90;;;;;;5445614;26;20286;-69
2024/04/20 11:26:20;;;;;;;8.13;2.93;;;12.00;1.00;;;;;;5447392;26;20264;-68
2024/04/20 11:28:50;;;;;;;8.83;2.63;;;11.70;99.90;;;;;;5450769;26;20324;-68
2024/04/20 11:31:20;;;;;;;9.23;2.30;;;11.60;98.90;;;;;;5447541;26;20721;-69
2024/04/20 11:33:53;;;;;;;8.57;2.40;;;11.40;99.90;;;;;;5447191;26;20600;-69
2024/04/20 11:36:24;;;;;;;15.83;2.80;;;11.50;1.00;;;;;;5445616;26;20261;-69
2024/04/20 11:39:09;;;;;;;6.03;2.27;;;11.60;1.00;;;;;;5449687;26;20288;-68
2024/04/20 11:41:40;;;;;;;7.33;2.37;;;11.50;1.00;;;;;;5446481;26;20247;-69
2024/04/20 11:44:10;;;;;;;9.27;2.73;;;11.50;1.00;;;;;;5429431;26;20250;-68
2024/04/20 11:46:40;;;;;;;10.83;2.40;;;11.60;1.00;;;;;;5454086;26;20296;-69
2024/04/20 11:49:15;;;;;;;5.03;1.87;;;11.70;1.00;;;;;;5458715;26;20248;-69
2024/04/20 11:54:47;;;;;;;7.93;2.60;;;11.60;1.00;;;;;;5448004;26;20272;-69
2024/04/20 11:57:17;;;;;;;8.70;2.40;;;11.80;1.00;;;;;;5442114;26;20299;-68
2024/04/20 11:59:48;;;;;;;13.77;2.37;;;11.90;1.00;;;;;;5451920;26;20309;-68
2024/04/20 12:02:18;;;;;;;3.30;2.30;;;12.20;1.00;;;;;;5444587;26;20316;-68
2024/04/20 12:04:53;;;;;;;9.83;2.20;;;12.50;99.90;;;;;;5456362;25;21131;-68
2024/04/20 12:07:24;;;;;;;6.50;2.13;;;12.60;99.90;;;;;;5447264;26;20340;-68
2024/04/20 12:09:54;;;;;;;6.50;1.80;;;12.60;99.90;;;;;;5450803;25;20767;-68
2024/04/20 12:12:24;;;;;;;5.97;1.70;;;12.60;1.00;;;;;;5455093;26;20301;-68
2024/04/20 12:14:54;;;;;;;5.37;2.30;;;12.50;1.00;;;;;;5454867;26;20254;-68
2024/04/20 12:17:25;;;;;;;7.60;2.13;;;12.20;90.30;;;;;;5444043;26;20265;-68
2024/04/20 12:19:57;;;;;;;5.77;2.17;;;11.90;1.00;;;;;;5443584;26;20380;-68
2024/04/20 12:22:30;;;;;;;9.80;2.10;;;11.90;1.00;;;;;;5453692;26;20275;-68
2024/04/20 12:25:00;;;;;;;8.53;2.20;;;11.80;1.00;;;;;;5444489;26;20272;-68
2024/04/20 12:27:30;;;;;;;6.47;2.17;;;11.90;99.90;;;;;;5456708;26;20252;-68
2024/04/20 12:30:00;;;;;;;7.90;1.87;;;11.90;74.70;;;;;;5448427;26;20296;-68
2024/04/20 12:32:31;;;;;;;6.47;2.17;;;12.00;99.90;;;;;;5446630;26;20275;-68
2024/04/20 12:35:04;;;;;;;5.37;2.00;;;12.00;1.00;;;;;;5438606;26;20290;-68
2024/04/20 12:37:34;;;;;;;2.80;1.40;;;12.20;71.10;;;;;;5442521;26;20811;-68
2024/04/20 12:40:04;;;;;;;3.30;1.70;;;12.40;1.00;;;;;;5444577;26;20303;-68
2024/04/20 12:42:35;;;;;;;5.67;1.60;;;13.10;1.00;;;;;;5436507;26;20254;-68
2024/04/20 12:45:07;;;;;;;7.00;1.63;;;13.70;99.90;;;;;;5439748;26;20290;-68
2024/04/20 12:47:37;;;;;;;2.03;1.47;;;13.80;1.00;;;;;;5442221;25;21932;-68
2024/04/20 12:50:10;;;;;;;8.03;1.60;;;13.70;1.00;;;;;;5446231;26;20253;-68
2024/04/20 12:52:40;;;;;;;4.23;1.90;;;13.50;97.70;;;;;;5441857;26;20759;-68
2024/04/20 12:55:13;;;;;;;7.07;1.80;;;13.80;75.20;;;;;;5438927;26;20296;-67
2024/04/20 12:57:47;;;;;;;7.93;1.70;;;14.20;1.00;;;;;;5445157;25;20717;-68
2024/04/20 13:00:18;;;;;;;5.47;1.83;;;14.30;1.00;;;;;;5450841;26;21145;-67
2024/04/20 13:02:49;;;;;;;4.00;1.60;;;14.60;1.00;;;;;;5451956;25;20263;-67
2024/04/20 13:05:22;;;;;;;6.63;2.00;;;14.80;7.70;;;;;;5454090;25;20274;-68
2024/04/20 13:07:52;;;;;;;6.00;1.60;;;15.00;1.00;;;;;;5442361;26;20267;-67
2024/04/20 13:10:22;;;;;;;6.10;2.20;;;14.80;1.00;;;;;;5443476;26;20728;-67
2024/04/20 13:12:52;;;;;;;4.70;1.80;;;14.20;1.00;;;;;;5450453;25;20254;-68
2024/04/20 13:15:22;;;;;;;3.00;1.43;;;13.50;1.00;;;;;;5446124;26;20294;-68
2024/04/20 13:17:52;;;;;;;3.23;1.90;;;13.30;99.90;;;;;;5441941;26;20602;-68